Terminal Aerodrome Forecast
Issued by NWS

Current Version | Previous Version | Text Only | Print | Product List | Glossary On
Versions: 1 2 3 4 5 6 7 8 9 10 11 12 13 14 15 16 17 18 19 20 21 22 23
000
FTUS46 KSTO 191726
TAFSMF
TAF
KSMF 191726Z 1918/2018 18005KT P6SM SCT150
     FM192300 33007KT P6SM VCSH BKN100
     FM200300 33006KT P6SM SCT250=

USA.gov is the U.S. government's official web portal to all federal, state and local government web resources and services.